createdAt,value
2023-02-01T00:04:45.030Z,15.90
2023-02-01T00:09:50.864Z,16.00
2023-02-01T00:14:56.796Z,16.00
2023-02-01T00:20:02.883Z,16.00
2023-02-01T00:25:09.324Z,16.10
2023-02-01T00:30:15.936Z,16.10
2023-02-01T00:35:22.206Z,16.20
2023-02-01T00:40:34.731Z,16.30
2023-02-01T00:45:40.963Z,16.20
2023-02-01T00:50:46.516Z,16.20
2023-02-01T00:55:57.003Z,16.40
2023-02-01T01:01:22.435Z,16.60
2023-02-01T01:06:34.269Z,16.70
2023-02-01T01:11:42.279Z,16.90
2023-02-01T01:16:48.427Z,17.20
2023-02-01T01:21:54.622Z,17.50
2023-02-01T01:27:00.538Z,17.70
2023-02-01T01:32:06.937Z,17.20
2023-02-01T01:37:12.875Z,17.10
2023-02-01T01:42:19.387Z,17.30
2023-02-01T01:47:25.241Z,17.70
2023-02-01T01:52:32.237Z,17.90
2023-02-01T01:57:42.819Z,18.10
2023-02-01T02:02:51.371Z,18.20
2023-02-01T02:08:01.993Z,18.30
2023-02-01T02:13:08.155Z,18.40
2023-02-01T02:18:49.796Z,18.30
2023-02-01T02:24:10.240Z,18.50
2023-02-01T02:29:57.382Z,18.60
2023-02-01T02:35:12.923Z,18.80
2023-02-01T02:40:28.789Z,18.90
2023-02-01T02:46:41.290Z,18.90
2023-02-01T03:13:56.429Z,19.50
2023-02-01T03:19:28.411Z,19.80
2023-02-01T03:24:53.503Z,20.00
2023-02-01T03:30:12.536Z,20.50
2023-02-01T03:35:27.698Z,21.00
2023-02-01T03:40:40.590Z,21.60
2023-02-01T03:46:02.259Z,22.30
2023-02-01T03:51:10.641Z,22.60
2023-02-01T03:56:20.938Z,22.90
2023-02-01T04:01:28.623Z,23.20
2023-02-01T04:06:45.807Z,23.10
2023-02-01T04:12:02.236Z,23.20
2023-02-01T04:17:19.581Z,23.00
2023-02-01T04:22:32.697Z,23.10
2023-02-01T04:27:55.173Z,23.50
2023-02-01T04:33:12.105Z,23.10
2023-02-01T04:44:02.163Z,23.60
2023-02-01T04:49:18.706Z,24.80
2023-02-01T04:54:28.409Z,25.60
2023-02-01T05:18:58.273Z,24.90
2023-02-01T05:24:16.452Z,26.80
2023-02-01T05:29:44.176Z,27.60
2023-02-01T05:34:52.923Z,29.20
2023-02-01T05:40:10.221Z,28.10
2023-02-01T05:45:17.490Z,26.70
2023-02-01T05:50:25.977Z,26.00
2023-02-01T05:55:39.669Z,25.20
2023-02-01T06:00:49.497Z,25.30
2023-02-01T06:06:18.259Z,26.30
2023-02-01T06:11:34.954Z,27.10
2023-02-01T06:16:42.261Z,28.60
2023-02-01T06:21:49.678Z,28.00
2023-02-01T06:26:57.251Z,27.50
2023-02-01T06:32:12.521Z,27.20
2023-02-01T06:37:18.826Z,28.00
2023-02-01T06:42:25.995Z,27.70
2023-02-01T06:47:37.356Z,27.00
2023-02-01T06:52:46.920Z,26.70
2023-02-01T06:57:57.406Z,26.50
2023-02-01T07:03:04.811Z,27.50
2023-02-01T07:08:14.433Z,29.30
2023-02-01T07:13:21.414Z,28.60
2023-02-01T07:18:32.166Z,28.50
2023-02-01T07:23:45.276Z,27.90
2023-02-01T07:28:57.180Z,29.00
2023-02-01T07:34:05.955Z,30.20
2023-02-01T07:39:18.274Z,31.40
2023-02-01T07:44:25.822Z,32.10
2023-02-01T07:49:32.090Z,30.10
2023-02-01T07:54:42.875Z,30.40
2023-02-01T08:00:09.929Z,29.30
2023-02-01T08:05:18.382Z,28.10
2023-02-01T08:10:28.475Z,27.20
2023-02-01T08:15:35.260Z,26.90
2023-02-01T08:20:46.050Z,26.80
2023-02-01T08:25:57.100Z,26.40
2023-02-01T08:31:14.373Z,25.60
2023-02-01T08:36:21.560Z,24.90
2023-02-01T08:41:30.626Z,24.70
2023-02-01T08:46:39.385Z,24.80
2023-02-01T08:51:45.763Z,24.90
2023-02-01T08:56:58.492Z,24.50
2023-02-01T09:02:05.086Z,24.50
2023-02-01T09:07:15.682Z,24.40
2023-02-01T09:12:23.679Z,24.30
2023-02-01T09:17:43.205Z,24.00
2023-02-01T09:22:50.565Z,23.70
2023-02-01T09:27:59.649Z,23.50
2023-02-01T09:33:07.624Z,23.40
2023-02-01T09:38:13.784Z,23.20
2023-02-01T09:43:19.946Z,23.00
2023-02-01T09:48:32.236Z,22.70
2023-02-01T09:53:47.537Z,22.50
2023-02-01T09:59:05.838Z,22.30
2023-02-01T10:04:16.404Z,22.10
2023-02-01T10:09:33.539Z,22.00
2023-02-01T10:15:03.483Z,21.80
2023-02-01T10:20:26.693Z,21.60
2023-02-01T10:25:37.419Z,21.50
2023-02-01T10:30:51.068Z,21.30
2023-02-01T10:36:19.713Z,21.00
2023-02-01T10:41:28.714Z,20.90
2023-02-01T10:46:36.774Z,20.60
2023-02-01T10:51:58.549Z,20.40
2023-02-01T10:57:04.853Z,20.50
2023-02-01T11:02:43.209Z,20.40
2023-02-01T11:08:05.025Z,20.50
2023-02-01T11:13:24.825Z,20.50
2023-02-01T11:18:36.507Z,20.50
2023-02-01T11:23:47.595Z,20.40
2023-02-01T11:29:20.100Z,20.40
2023-02-01T11:34:37.276Z,20.30
2023-02-01T11:39:43.937Z,20.20
2023-02-01T11:44:52.878Z,20.20
2023-02-01T11:50:07.589Z,20.20
2023-02-01T11:55:25.583Z,20.20
2023-02-01T12:00:43.261Z,20.00
2023-02-01T12:06:26.034Z,20.10
2023-02-01T12:12:04.227Z,20.00
2023-02-01T12:17:54.415Z,20.10
2023-02-01T12:23:50.799Z,20.00
2023-02-01T12:29:35.094Z,20.00
2023-02-01T12:35:39.306Z,20.00
2023-02-01T12:41:16.233Z,20.10
2023-02-01T12:47:17.418Z,20.10
2023-02-01T12:53:10.547Z,20.00
2023-02-01T12:58:37.511Z,20.00
2023-02-01T13:04:04.510Z,20.00
2023-02-01T13:09:56.619Z,20.00
2023-02-01T13:15:34.526Z,20.00
2023-02-01T13:27:50.101Z,20.00
2023-02-01T13:33:52.324Z,20.00
2023-02-01T13:45:12.621Z,19.90
2023-02-01T13:56:31.759Z,19.90
2023-02-01T14:02:10.206Z,19.90
2023-02-01T14:08:07.491Z,19.90
2023-02-01T14:14:16.141Z,19.90
2023-02-01T14:25:07.403Z,19.90
2023-02-01T14:30:36.359Z,19.80
2023-02-01T14:35:58.296Z,19.80
2023-02-01T14:47:41.213Z,19.90
2023-02-01T14:53:09.673Z,19.90
2023-02-01T14:58:39.600Z,19.80
2023-02-01T15:04:26.949Z,19.80
2023-02-01T15:09:51.391Z,19.80
2023-02-01T15:15:21.955Z,19.80
2023-02-01T15:21:00.788Z,19.70
2023-02-01T15:26:12.483Z,19.70
2023-02-01T15:31:35.268Z,19.70
2023-02-01T15:37:01.629Z,19.70
2023-02-01T15:42:22.186Z,19.80
2023-02-01T15:47:33.347Z,19.70
2023-02-01T15:52:45.697Z,19.70
2023-02-01T15:57:53.842Z,19.80
2023-02-01T16:03:10.507Z,19.80
2023-02-01T16:08:24.343Z,19.80
2023-02-01T16:13:30.047Z,19.80
2023-02-01T16:18:36.054Z,19.80
2023-02-01T16:23:42.043Z,19.70
2023-02-01T16:28:47.904Z,19.70
2023-02-01T16:33:54.619Z,19.70
2023-02-01T16:39:00.976Z,19.60
2023-02-01T16:44:06.159Z,19.60
2023-02-01T16:49:28.865Z,19.60
2023-02-01T16:54:34.748Z,19.60
2023-02-01T16:59:40.616Z,19.60
2023-02-01T17:04:46.460Z,19.50
2023-02-01T17:09:52.133Z,19.50
2023-02-01T17:14:58.792Z,19.50
2023-02-01T17:20:05.630Z,19.50
2023-02-01T17:25:21.900Z,19.50
2023-02-01T17:30:28.210Z,19.40
2023-02-01T17:35:33.935Z,19.40
2023-02-01T17:40:39.864Z,19.40
2023-02-01T17:45:58.540Z,19.40
2023-02-01T17:51:04.646Z,19.40
2023-02-01T17:56:15.010Z,19.40
2023-02-01T18:01:26.805Z,19.40
2023-02-01T18:06:38.359Z,19.40
2023-02-01T18:11:44.588Z,19.40
2023-02-01T18:16:50.986Z,19.50
2023-02-01T18:21:59.262Z,19.50
2023-02-01T18:27:05.267Z,19.50
2023-02-01T18:32:13.010Z,19.40
2023-02-01T18:37:18.295Z,19.30
2023-02-01T18:42:23.985Z,19.30
2023-02-01T18:47:29.318Z,19.30
2023-02-01T18:52:35.233Z,19.30
2023-02-01T18:57:41.864Z,19.20
2023-02-01T19:02:47.729Z,19.20
2023-02-01T19:07:53.914Z,19.20
2023-02-01T19:13:00.054Z,19.20
2023-02-01T19:18:06.767Z,19.20
2023-02-01T19:23:12.738Z,19.20
2023-02-01T19:28:19.075Z,19.20
2023-02-01T19:33:25.003Z,19.20
2023-02-01T19:38:31.005Z,19.20
2023-02-01T19:43:38.220Z,19.20
2023-02-01T19:48:43.842Z,19.20
2023-02-01T19:53:49.694Z,19.20
2023-02-01T19:58:56.835Z,19.20
2023-02-01T20:04:07.396Z,19.20
2023-02-01T20:09:12.997Z,19.10
2023-02-01T20:14:19.429Z,19.20
2023-02-01T20:19:24.742Z,19.20
2023-02-01T20:24:30.205Z,19.20
2023-02-01T20:29:36.876Z,19.20
2023-02-01T20:34:42.292Z,19.20
2023-02-01T20:39:48.849Z,19.20
2023-02-01T20:44:54.533Z,19.20
2023-02-01T20:50:00.352Z,19.20
2023-02-01T20:55:06.273Z,19.20
2023-02-01T21:00:12.967Z,19.20
2023-02-01T21:05:19.728Z,19.20
2023-02-01T21:10:25.404Z,19.20
2023-02-01T21:15:32.388Z,19.10
2023-02-01T21:20:38.462Z,19.10
2023-02-01T21:25:45.498Z,19.10
2023-02-01T21:30:51.394Z,19.20
2023-02-01T21:35:57.322Z,19.30
2023-02-01T21:41:21.502Z,19.20
2023-02-01T21:46:27.305Z,19.10
2023-02-01T21:51:33.400Z,19.10
2023-02-01T21:56:40.505Z,19.10
2023-02-01T22:01:46.439Z,19.10
2023-02-01T22:06:52.139Z,19.20
2023-02-01T22:11:58.222Z,19.20
2023-02-01T22:17:04.147Z,19.20
2023-02-01T22:22:13.057Z,19.20
2023-02-01T22:27:18.746Z,19.20
2023-02-01T22:32:24.881Z,19.20
2023-02-01T22:37:30.541Z,19.20
2023-02-01T22:42:36.480Z,19.20
2023-02-01T22:47:42.609Z,19.20
2023-02-01T22:52:48.663Z,19.20
2023-02-01T22:57:54.339Z,19.20
2023-02-01T23:03:00.313Z,19.20
2023-02-01T23:08:06.079Z,19.20
2023-02-01T23:13:12.228Z,19.20
2023-02-01T23:18:18.266Z,19.20
2023-02-01T23:23:24.388Z,19.20
2023-02-01T23:28:32.036Z,19.20
2023-02-01T23:33:38.959Z,19.20
2023-02-01T23:38:48.438Z,19.20
2023-02-01T23:44:00.272Z,19.20
2023-02-01T23:49:07.994Z,19.20
2023-02-01T23:54:14.899Z,19.30
2023-02-01T23:59:23.405Z,19.30
